Terminal Aerodrome Forecast
Issued by NWS Austin/San Antonio, TX

Home | Current Version | Previous Version | Text Only | Print | Product List | Glossary On
Versions: 1 2 3 4 5 6 7 8 9 10 11 12 13 14 15 16 17 18 19 20 21 22 23 24 25 26 27 28 29 30 31
000
FTUS44 KEWX 051120
TAFSAT
TAF
KSAT 051120Z 0512/0618 35005KT 6SM -SHRA BR BKN012
      TEMPO 0512/0513 5SM BR OVC008
     FM052200 27005KT P6SM SCT015 BKN025
     FM060000 27005KT P6SM SCT050=

USA.gov is the U.S. government's official web portal to all federal, state and local government web resources and services.